Mandarin Grace — 9V8352 — position and weather

sailwx.info

Track history (hours):
 
Tides and Currents Weather Stations Pressure Air Temp Water Temp Dewpoint Dewpoint Depression Visibility Wind Speed Wind Dir Waves Ship Positions

Mandarin Grace

Last reported at 2017-Nov-18 03:25 UTC. Time now 2017-Nov-18 12:23 UTC.
Position N 51°34' E 002°20'.

Length 190 m; draft 11.8 m.

Type: Ship. MMSI: 563862000.

Date/timePositionNaut miles runAvg speedWind from/ knotsBaromVisibWave heightAir tempDewpointWater temp
2017-Nov-18 03:25N 51°34' E 002°20'512.7
2017-Nov-18 03:00N 51°30' E 002°14'613.0
2017-Nov-18 02:30N 51°25' E 002°07'612.9
2017-Nov-18 02:00N 51°20' E 002°02'613.0
2017-Nov-18 01:30N 51°16' E 001°53'713.9
2017-Nov-18 01:00N 51°11' E 001°46'714.1
2017-Nov-18 00:30N 51°05' E 001°40'713.8
2017-Nov-18 00:00N 50°59' E 001°34'714.4
2017-Nov-17 23:30N 50°53' E 001°27'714.0
2017-Nov-17 22:59N 50°46' E 001°24'1912.4
2017-Nov-17 21:29N 50°33' E 001°04'712.8
2017-Nov-17 20:55N 50°29' E 000°54'2413.5
2017-Nov-17 19:11N 50°22' E 000°18'613.3
2017-Nov-17 18:45N 50°21' E 000°09'313.0
2017-Nov-17 18:29N 50°20' E 000°04'612.6
2017-Nov-17 18:00N 50°18' W 000°05'612.2
2017-Nov-17 17:31N 50°16' W 000°14'2511.0
2017-Nov-17 15:16N 50°10' W 000°51'3 9.6
2017-Nov-17 15:00N 50°09' W 000°54'5 9.2
2017-Nov-17 14:30N 50°08' W 001°01'4 8.6
2017-Nov-17 14:00N 50°07' W 001°08'4 8.4
2017-Nov-17 13:30N 50°05' W 001°14'4 8.1
2017-Nov-17 13:00N 50°04' W 001°20'4 8.0
2017-Nov-17 12:30N 50°03' W 001°26'4 8.1
2017-Nov-17 12:00N 50°02' W 001°32'4 8.8
2017-Nov-17 11:30N 50°01' W 001°39'5 9.3
2017-Nov-17 11:00N 49°60' W 001°46'510.1
2017-Nov-17 10:30N 49°58' W 001°53'511.0
2017-Nov-17 10:00N 49°57' W 002°02'611.9
2017-Nov-17 09:30N 49°55' W 002°11'2012.5
2017-Nov-17 07:54N 49°51' W 002°41'512.7
2017-Nov-17 07:30N 49°49' W 002°48'812.4
2017-Nov-17 06:53N 49°48' W 003°00'512.4
2017-Nov-17 06:30N 49°48' W 003°08'812.3
2017-Nov-17 05:54N 49°47' W 003°19'1312.2
2017-Nov-17 04:49N 49°46' W 003°39'412.1
2017-Nov-17 04:29N 49°46' W 003°46'612.0
2017-Nov-17 04:00N 49°45' W 003°55'711.9
2017-Nov-17 03:23N 49°44' W 004°06'3211.8
2017-Nov-17 00:42N 49°42' W 004°55'211.4
2017-Nov-17 00:29N 49°42' W 004°58'711.1
2017-Nov-16 23:52N 49°41' W 005°09'410.9
2017-Nov-16 23:29N 49°41' W 005°15'  
Track history (hours):
 
Tides and Currents Weather Stations Pressure Air Temp Water Temp Dewpoint Dewpoint Depression Visibility Wind Speed Wind Dir Waves Ship Positions

Mandarin Grace

Last reported at 2017-Nov-18 03:25 UTC. Time now 2017-Nov-18 12:24 UTC.
Position N 51°34' E 002°20'.

Length 190 m; draft 11.8 m.

Type: Ship. MMSI: 563862000.

Date/timePositionNaut miles runAvg speedWind from/ knotsBaromVisibWave heightAir tempDewpointWater temp
2017-Nov-18 03:25N 51°34' E 002°20'512.7
2017-Nov-18 03:00N 51°30' E 002°14'613.0
2017-Nov-18 02:30N 51°25' E 002°07'612.9
2017-Nov-18 02:00N 51°20' E 002°02'613.0
2017-Nov-18 01:30N 51°16' E 001°53'713.9
2017-Nov-18 01:00N 51°11' E 001°46'714.1
2017-Nov-18 00:30N 51°05' E 001°40'713.8
2017-Nov-18 00:00N 50°59' E 001°34'714.4
2017-Nov-17 23:30N 50°53' E 001°27'714.0
2017-Nov-17 22:59N 50°46' E 001°24'1912.4
2017-Nov-17 21:29N 50°33' E 001°04'712.8
2017-Nov-17 20:55N 50°29' E 000°54'2413.5
2017-Nov-17 19:11N 50°22' E 000°18'613.3
2017-Nov-17 18:45N 50°21' E 000°09'313.0
2017-Nov-17 18:29N 50°20' E 000°04'612.6
2017-Nov-17 18:00N 50°18' W 000°05'612.2
2017-Nov-17 17:31N 50°16' W 000°14'2511.0
2017-Nov-17 15:16N 50°10' W 000°51'3 9.6
2017-Nov-17 15:00N 50°09' W 000°54'5 9.2
2017-Nov-17 14:30N 50°08' W 001°01'4 8.6
2017-Nov-17 14:00N 50°07' W 001°08'4 8.4
2017-Nov-17 13:30N 50°05' W 001°14'4 8.1
2017-Nov-17 13:00N 50°04' W 001°20'4 8.0
2017-Nov-17 12:30N 50°03' W 001°26'4 8.1
2017-Nov-17 12:00N 50°02' W 001°32'4 8.8
2017-Nov-17 11:30N 50°01' W 001°39'5 9.3
2017-Nov-17 11:00N 49°60' W 001°46'510.1
2017-Nov-17 10:30N 49°58' W 001°53'511.0
2017-Nov-17 10:00N 49°57' W 002°02'611.9
2017-Nov-17 09:30N 49°55' W 002°11'2012.5
2017-Nov-17 07:54N 49°51' W 002°41'512.7
2017-Nov-17 07:30N 49°49' W 002°48'812.4
2017-Nov-17 06:53N 49°48' W 003°00'512.4
2017-Nov-17 06:30N 49°48' W 003°08'812.3
2017-Nov-17 05:54N 49°47' W 003°19'1312.2
2017-Nov-17 04:49N 49°46' W 003°39'412.1
2017-Nov-17 04:29N 49°46' W 003°46'612.0
2017-Nov-17 04:00N 49°45' W 003°55'711.9
2017-Nov-17 03:23N 49°44' W 004°06'3211.8
2017-Nov-17 00:42N 49°42' W 004°55'211.4
2017-Nov-17 00:29N 49°42' W 004°58'711.1
2017-Nov-16 23:52N 49°41' W 005°09'410.9
2017-Nov-16 23:29N 49°41' W 005°15'  

Dump ship's entire track history